createdAt,value
2023-03-29T00:00:46.508Z,56.57
2023-03-29T00:01:42.499Z,56.56
2023-03-29T00:02:34.477Z,56.10
2023-03-29T00:03:26.620Z,56.83
2023-03-29T00:04:18.721Z,57.84
2023-03-29T00:05:03.370Z,57.75
2023-03-29T00:05:56.230Z,57.19
2023-03-29T00:06:47.970Z,57.11
2023-03-29T00:07:33.206Z,57.12
2023-03-29T00:08:24.961Z,56.32
2023-03-29T00:09:16.685Z,57.78
2023-03-29T00:10:07.437Z,59.02
2023-03-29T00:10:59.554Z,58.70
2023-03-29T00:11:51.573Z,58.85
2023-03-29T00:12:43.373Z,57.02
2023-03-29T00:13:35.436Z,57.55
2023-03-29T00:14:27.202Z,58.88
2023-03-29T00:15:19.110Z,59.02
2023-03-29T00:16:11.034Z,59.46
2023-03-29T00:17:02.954Z,58.37
2023-03-29T00:17:54.962Z,57.99
2023-03-29T00:18:46.980Z,57.60
2023-03-29T00:19:31.667Z,57.13
2023-03-29T00:20:23.583Z,57.27
2023-03-29T00:21:15.598Z,58.77
2023-03-29T00:22:07.490Z,58.68
2023-03-29T00:23:02.450Z,60.67
2023-03-29T00:23:54.224Z,60.27
2023-03-29T00:24:46.142Z,59.22
2023-03-29T00:25:38.136Z,60.30
2023-03-29T00:26:29.927Z,59.67
2023-03-29T00:27:21.721Z,59.58
2023-03-29T00:28:13.793Z,59.33
2023-03-29T00:28:58.622Z,60.31
2023-03-29T00:29:50.431Z,59.55
2023-03-29T00:30:42.263Z,60.56
2023-03-29T00:31:34.118Z,61.78
2023-03-29T00:32:26.074Z,60.96
2023-03-29T00:33:18.040Z,60.84
2023-03-29T00:34:09.823Z,61.17
2023-03-29T00:35:01.774Z,63.37
2023-03-29T00:35:53.647Z,64.82
2023-03-29T00:36:45.547Z,69.62
2023-03-29T00:37:37.531Z,68.47
2023-03-29T00:38:12.729Z,71.73
2023-03-29T00:38:57.421Z,72.90
2023-03-29T00:39:47.682Z,73.62
2023-03-29T00:40:39.520Z,74.02
2023-03-29T00:41:31.462Z,73.82
2023-03-29T00:42:23.460Z,73.15
2023-03-29T00:43:15.285Z,73.40
2023-03-29T00:44:06.989Z,72.94
2023-03-29T00:44:58.801Z,72.33
2023-03-29T00:45:50.588Z,72.41
2023-03-29T00:46:35.511Z,72.49
2023-03-29T00:47:10.420Z,72.42
2023-03-29T00:47:55.265Z,69.67
2023-03-29T00:48:47.044Z,67.87
2023-03-29T00:49:38.683Z,68.93
2023-03-29T00:50:21.971Z,68.94
2023-03-29T00:51:13.887Z,69.00
2023-03-29T00:52:05.669Z,68.75
2023-03-29T00:52:50.315Z,68.00
2023-03-29T00:53:30.622Z,67.70
2023-03-29T00:54:05.456Z,67.05
2023-03-29T00:54:57.426Z,66.76
2023-03-29T00:55:49.436Z,65.45
2023-03-29T00:56:41.363Z,64.93
2023-03-29T00:57:27.220Z,63.64
2023-03-29T00:58:12.152Z,62.73
2023-03-29T00:59:04.004Z,61.62
2023-03-29T00:59:55.750Z,61.59
2023-03-29T01:00:47.596Z,61.03
2023-03-29T01:01:39.488Z,61.15
2023-03-29T01:02:21.620Z,60.57
2023-03-29T01:03:13.878Z,60.47
2023-03-29T01:03:53.698Z,58.85
2023-03-29T01:04:45.580Z,56.49
2023-03-29T01:05:30.110Z,53.49
2023-03-29T01:06:22.021Z,51.63
2023-03-29T01:07:13.848Z,49.94
2023-03-29T01:08:05.770Z,48.84
2023-03-29T01:08:57.600Z,48.32
2023-03-29T01:09:49.448Z,47.95
2023-03-29T01:10:41.410Z,47.81
2023-03-29T01:11:33.040Z,47.46
2023-03-29T01:12:24.809Z,48.11
2023-03-29T01:13:16.768Z,47.35
2023-03-29T01:13:58.786Z,48.45
2023-03-29T01:14:50.560Z,48.33
2023-03-29T01:15:42.328Z,48.49
2023-03-29T01:16:24.708Z,49.55
2023-03-29T01:16:59.475Z,49.41
2023-03-29T01:17:43.975Z,50.52
2023-03-29T01:18:35.803Z,53.37
2023-03-29T01:19:27.745Z,51.66
2023-03-29T01:20:19.764Z,51.24
2023-03-29T01:21:05.590Z,51.32
2023-03-29T01:21:57.488Z,52.92
2023-03-29T01:22:49.556Z,51.19
2023-03-29T01:23:29.852Z,54.48
2023-03-29T01:24:21.635Z,53.42
2023-03-29T01:25:13.621Z,53.03
2023-03-29T01:26:05.507Z,52.76
2023-03-29T01:26:57.276Z,55.12
2023-03-29T01:27:49.184Z,57.58
2023-03-29T01:28:41.074Z,56.38
2023-03-29T01:29:32.971Z,57.62
2023-03-29T01:30:24.828Z,58.44
2023-03-29T01:31:09.094Z,58.22
2023-03-29T01:32:01.208Z,57.19
2023-03-29T01:32:43.501Z,57.13
2023-03-29T01:33:35.331Z,56.72
2023-03-29T01:34:27.326Z,56.65
2023-03-29T01:35:19.017Z,58.76
2023-03-29T01:36:10.726Z,59.22
2023-03-29T01:37:02.470Z,60.52
2023-03-29T01:37:54.325Z,60.62
2023-03-29T01:38:47.385Z,58.67
2023-03-29T01:39:21.962Z,58.88
2023-03-29T01:40:13.933Z,59.47
2023-03-29T01:41:05.767Z,60.18
2023-03-29T01:41:57.159Z,61.26
2023-03-29T01:42:49.170Z,61.72
2023-03-29T01:43:33.654Z,62.71
2023-03-29T01:44:25.588Z,63.39
2023-03-29T01:45:17.434Z,66.61
2023-03-29T01:46:09.338Z,66.19
2023-03-29T01:47:01.124Z,68.83
2023-03-29T01:47:53.162Z,69.42
2023-03-29T01:48:44.892Z,68.81
2023-03-29T01:49:36.744Z,70.06
2023-03-29T01:50:28.269Z,70.67
2023-03-29T01:51:20.144Z,70.72
2023-03-29T01:52:12.040Z,70.60
2023-03-29T01:53:03.933Z,70.83
2023-03-29T01:53:55.832Z,69.90
2023-03-29T01:54:40.414Z,69.19
2023-03-29T01:55:32.201Z,67.34
2023-03-29T01:56:24.046Z,66.25
2023-03-29T01:57:16.032Z,66.51
2023-03-29T01:58:07.866Z,66.16
2023-03-29T01:58:59.642Z,65.68
2023-03-29T01:59:51.615Z,63.39
2023-03-29T02:00:43.488Z,63.05
2023-03-29T02:01:35.283Z,62.65
2023-03-29T02:02:27.461Z,62.15
2023-03-29T02:03:20.303Z,61.87
2023-03-29T02:04:12.218Z,61.31
2023-03-29T02:05:04.047Z,60.82
2023-03-29T02:05:56.049Z,60.16
2023-03-29T02:06:47.915Z,57.42
2023-03-29T02:07:39.772Z,53.11
2023-03-29T02:08:31.720Z,50.19
2023-03-29T02:09:23.925Z,48.70
2023-03-29T02:10:15.749Z,47.47
2023-03-29T02:11:07.582Z,46.86
2023-03-29T02:11:59.449Z,46.45
2023-03-29T02:12:50.334Z,47.36
2023-03-29T02:13:42.153Z,47.92
2023-03-29T02:14:33.993Z,47.38
2023-03-29T02:15:25.921Z,48.21
2023-03-29T02:16:17.848Z,48.73
2023-03-29T02:17:02.586Z,50.04
2023-03-29T02:17:54.379Z,50.42
2023-03-29T02:18:46.520Z,50.43
2023-03-29T02:19:38.415Z,49.70
2023-03-29T02:20:39.706Z,52.31
2023-03-29T02:21:31.576Z,51.87
2023-03-29T02:22:23.501Z,50.52
2023-03-29T02:23:15.475Z,51.81
2023-03-29T02:23:50.265Z,52.49
2023-03-29T02:24:42.076Z,51.59
2023-03-29T02:25:34.128Z,52.76
2023-03-29T02:26:25.928Z,50.85
2023-03-29T02:27:02.814Z,52.30
2023-03-29T02:27:54.644Z,54.05
2023-03-29T02:28:46.445Z,54.71
2023-03-29T02:29:38.349Z,53.66
2023-03-29T02:30:30.225Z,55.39
2023-03-29T02:31:22.238Z,55.55
2023-03-29T02:32:14.315Z,54.30
2023-03-29T02:33:06.342Z,53.50
2023-03-29T02:33:58.412Z,52.96
2023-03-29T02:34:50.344Z,52.83
2023-03-29T02:35:41.776Z,55.30
2023-03-29T02:36:33.660Z,57.53
2023-03-29T02:37:25.203Z,56.09
2023-03-29T02:38:18.118Z,59.67
2023-03-29T02:39:11.269Z,58.15
2023-03-29T02:40:03.218Z,58.06
2023-03-29T02:40:43.617Z,59.70
2023-03-29T02:41:35.006Z,61.00
2023-03-29T02:42:26.889Z,60.66
2023-03-29T02:43:18.773Z,59.27
2023-03-29T02:43:59.682Z,59.74
2023-03-29T02:44:51.526Z,59.95
2023-03-29T02:45:43.376Z,59.92
2023-03-29T02:46:35.313Z,61.11
2023-03-29T02:47:27.405Z,59.67
2023-03-29T02:48:19.267Z,60.71
2023-03-29T02:49:07.871Z,60.22
2023-03-29T02:49:59.786Z,59.40
2023-03-29T02:50:51.673Z,61.11
2023-03-29T02:51:43.442Z,60.94
2023-03-29T02:52:35.300Z,60.34
2023-03-29T02:53:27.270Z,62.71
2023-03-29T02:54:08.849Z,63.72
2023-03-29T02:55:00.736Z,65.93
2023-03-29T02:55:52.562Z,69.50
2023-03-29T02:56:44.403Z,72.03
2023-03-29T02:57:21.538Z,74.17
2023-03-29T02:58:12.840Z,74.50
2023-03-29T02:59:04.581Z,72.83
2023-03-29T02:59:56.372Z,71.73
2023-03-29T03:00:40.752Z,69.31
2023-03-29T03:01:32.588Z,61.92
2023-03-29T03:02:24.552Z,64.86
2023-03-29T03:03:16.571Z,65.58
2023-03-29T03:04:08.617Z,65.50
2023-03-29T03:04:56.367Z,64.81
2023-03-29T03:05:48.036Z,64.76
2023-03-29T03:06:40.062Z,62.50
2023-03-29T03:07:31.936Z,62.30
2023-03-29T03:08:24.692Z,62.66
2023-03-29T03:09:16.755Z,62.20
2023-03-29T03:09:57.318Z,61.86
2023-03-29T03:10:49.024Z,61.87
2023-03-29T03:11:40.854Z,61.23
2023-03-29T03:12:32.658Z,58.56
2023-03-29T03:13:24.468Z,56.10
2023-03-29T03:14:06.363Z,53.12
2023-03-29T03:14:58.231Z,51.59
2023-03-29T03:15:50.048Z,49.94
2023-03-29T03:16:38.240Z,49.48
2023-03-29T03:17:30.298Z,48.36
2023-03-29T03:18:22.214Z,49.41
2023-03-29T03:19:13.810Z,50.23
2023-03-29T03:20:05.562Z,50.36
2023-03-29T03:20:57.388Z,48.18
2023-03-29T03:21:49.278Z,50.08
2023-03-29T03:22:24.389Z,52.34
2023-03-29T03:23:16.235Z,51.89
2023-03-29T03:24:08.057Z,50.93
2023-03-29T03:24:48.806Z,52.70
2023-03-29T03:25:29.439Z,53.12
2023-03-29T03:26:21.229Z,51.70
2023-03-29T03:27:12.959Z,52.84
2023-03-29T03:28:04.988Z,52.51
2023-03-29T03:28:56.783Z,53.41
2023-03-29T03:29:48.733Z,54.88
2023-03-29T03:30:23.548Z,53.98
2023-03-29T03:31:15.290Z,53.45
2023-03-29T03:32:07.314Z,52.40
2023-03-29T03:32:59.295Z,54.86
2023-03-29T03:33:39.849Z,57.42
2023-03-29T03:34:31.793Z,55.96
2023-03-29T03:35:17.000Z,54.32
2023-03-29T03:36:08.770Z,54.90
2023-03-29T03:37:00.535Z,56.18
2023-03-29T03:37:52.395Z,57.12
2023-03-29T03:38:44.413Z,56.11
2023-03-29T03:39:36.392Z,57.97
2023-03-29T03:40:28.291Z,58.64
2023-03-29T03:41:13.184Z,57.61
2023-03-29T03:42:08.278Z,56.47
2023-03-29T03:43:00.416Z,59.26
2023-03-29T03:43:47.610Z,57.48
2023-03-29T03:44:21.936Z,58.21
2023-03-29T03:45:13.779Z,58.04
2023-03-29T03:46:05.629Z,59.48
2023-03-29T03:46:57.622Z,59.36
2023-03-29T03:47:49.383Z,58.92
2023-03-29T03:48:41.214Z,58.14
2023-03-29T03:49:33.174Z,59.22
2023-03-29T03:50:25.066Z,61.43
2023-03-29T03:51:16.934Z,60.65
2023-03-29T03:52:08.780Z,60.03
2023-03-29T03:53:00.709Z,59.49
2023-03-29T03:53:52.697Z,61.51
2023-03-29T03:54:44.555Z,60.67
2023-03-29T03:55:25.475Z,59.88
2023-03-29T03:56:17.425Z,59.92
2023-03-29T03:57:09.203Z,60.18
2023-03-29T03:58:01.072Z,61.79
2023-03-29T03:58:42.791Z,61.34
2023-03-29T03:59:34.617Z,61.06
2023-03-29T04:00:35.396Z,60.02
2023-03-29T04:01:27.425Z,61.55
2023-03-29T04:02:19.366Z,63.58
2023-03-29T04:03:11.443Z,64.15
2023-03-29T04:04:03.535Z,66.38
2023-03-29T04:04:55.245Z,69.11
2023-03-29T04:05:47.212Z,69.49
2023-03-29T04:06:39.426Z,68.17
2023-03-29T04:07:32.363Z,68.75
2023-03-29T04:08:24.128Z,70.51
2023-03-29T04:09:16.021Z,71.75
2023-03-29T04:10:07.931Z,72.00
2023-03-29T04:11:00.104Z,72.31
2023-03-29T04:11:51.986Z,72.60
2023-03-29T04:12:43.810Z,71.44
2023-03-29T04:13:32.211Z,72.08
2023-03-29T04:14:12.731Z,71.71
2023-03-29T04:15:04.452Z,71.24
2023-03-29T04:15:44.841Z,70.54
2023-03-29T04:16:36.399Z,69.58
2023-03-29T04:17:11.000Z,68.93
2023-03-29T04:18:02.863Z,68.38
2023-03-29T04:18:54.874Z,66.53
2023-03-29T04:19:46.788Z,65.18
2023-03-29T04:20:37.235Z,64.82
2023-03-29T04:21:29.158Z,64.40
2023-03-29T04:22:21.150Z,62.34
2023-03-29T04:23:12.975Z,62.84
2023-03-29T04:24:04.836Z,62.26
2023-03-29T04:24:39.375Z,61.88
2023-03-29T04:25:31.264Z,61.19
2023-03-29T04:26:23.170Z,60.07
2023-03-29T04:27:15.115Z,59.10
2023-03-29T04:28:06.932Z,55.31
2023-03-29T04:28:58.800Z,52.16
2023-03-29T04:29:41.701Z,49.37
2023-03-29T04:30:33.561Z,47.78
2023-03-29T04:31:14.135Z,46.31
2023-03-29T04:32:06.229Z,46.27
2023-03-29T04:32:58.250Z,46.98
2023-03-29T04:33:50.208Z,46.70
2023-03-29T04:34:41.977Z,47.60
2023-03-29T04:35:33.934Z,46.81
2023-03-29T04:36:25.924Z,46.63
2023-03-29T04:37:17.750Z,45.97
2023-03-29T04:38:09.437Z,45.91
2023-03-29T04:38:50.303Z,45.26
2023-03-29T04:39:30.675Z,46.86
2023-03-29T04:40:22.501Z,46.76
2023-03-29T04:41:14.413Z,47.41
2023-03-29T04:42:06.251Z,50.94
2023-03-29T04:42:48.098Z,49.86
2023-03-29T04:43:40.376Z,50.30
2023-03-29T04:44:32.268Z,50.82
2023-03-29T04:45:07.319Z,51.61
2023-03-29T04:45:59.295Z,52.47
2023-03-29T04:46:51.048Z,52.59
2023-03-29T04:47:43.049Z,52.37
2023-03-29T04:48:34.868Z,50.78
2023-03-29T04:49:19.463Z,50.05
2023-03-29T04:50:03.761Z,50.93
2023-03-29T04:50:55.497Z,52.05
2023-03-29T04:51:47.324Z,51.10
2023-03-29T04:52:39.099Z,50.99
2023-03-29T04:53:31.032Z,51.81
2023-03-29T04:54:22.961Z,51.88
2023-03-29T04:55:14.936Z,53.85
2023-03-29T04:56:06.811Z,56.59
2023-03-29T04:56:47.522Z,57.36
2023-03-29T04:57:39.230Z,55.59
2023-03-29T04:58:32.571Z,57.46
2023-03-29T04:59:24.653Z,56.17
2023-03-29T05:00:16.540Z,56.15
2023-03-29T05:01:08.601Z,56.65
2023-03-29T05:02:00.801Z,58.67
2023-03-29T05:02:52.687Z,57.96
2023-03-29T05:03:44.529Z,57.58
2023-03-29T05:04:36.596Z,57.84
2023-03-29T05:05:28.650Z,57.59
2023-03-29T05:06:16.189Z,57.29
2023-03-29T05:06:58.492Z,57.23
2023-03-29T05:07:50.267Z,58.19
2023-03-29T05:08:42.081Z,56.34
2023-03-29T05:09:35.503Z,57.13
2023-03-29T05:10:27.359Z,57.85
2023-03-29T05:11:19.162Z,57.86
2023-03-29T05:12:10.993Z,60.93
2023-03-29T05:13:02.803Z,61.02
2023-03-29T05:13:54.714Z,59.56
2023-03-29T05:14:37.818Z,61.00
2023-03-29T05:15:19.588Z,59.88
2023-03-29T05:16:11.819Z,59.58
2023-03-29T05:17:03.736Z,61.34
2023-03-29T05:17:56.651Z,62.33
2023-03-29T05:18:37.470Z,64.79
2023-03-29T05:19:29.436Z,68.11
2023-03-29T05:20:21.280Z,70.76
2023-03-29T05:21:13.149Z,68.60
2023-03-29T05:22:04.941Z,68.71
2023-03-29T05:22:56.839Z,67.57
2023-03-29T05:23:48.811Z,70.08
2023-03-29T05:24:40.663Z,68.94
2023-03-29T05:25:32.366Z,66.25
2023-03-29T05:26:21.849Z,63.59
2023-03-29T05:27:13.769Z,64.92
2023-03-29T05:27:54.266Z,64.88
2023-03-29T05:28:31.301Z,62.27
2023-03-29T05:29:23.075Z,59.76
2023-03-29T05:30:14.883Z,58.79
2023-03-29T05:31:06.717Z,55.61
2023-03-29T05:31:58.713Z,53.13
2023-03-29T05:32:50.734Z,51.29
2023-03-29T05:33:42.581Z,50.83
2023-03-29T05:34:34.526Z,49.54
2023-03-29T05:35:08.932Z,48.35
2023-03-29T05:36:00.965Z,49.00
2023-03-29T05:36:52.884Z,49.87
2023-03-29T05:37:33.521Z,51.58
2023-03-29T05:38:18.357Z,50.91
2023-03-29T05:38:58.888Z,50.98
2023-03-29T05:39:50.747Z,50.86
2023-03-29T05:40:42.632Z,52.08
2023-03-29T05:41:34.303Z,51.61
2023-03-29T05:42:26.016Z,51.40
2023-03-29T05:43:17.913Z,51.79
2023-03-29T05:44:09.700Z,53.91
2023-03-29T05:45:01.455Z,53.49
2023-03-29T05:45:53.422Z,54.41
2023-03-29T05:46:25.382Z,56.25
2023-03-29T05:47:17.216Z,56.49
2023-03-29T05:48:09.079Z,55.05
2023-03-29T05:49:00.869Z,56.42
2023-03-29T05:49:45.399Z,56.54
2023-03-29T05:50:29.859Z,57.58
2023-03-29T05:51:21.786Z,57.26
2023-03-29T05:52:13.759Z,57.41
2023-03-29T05:52:45.539Z,57.79
2023-03-29T05:53:37.430Z,58.10
2023-03-29T05:54:22.041Z,58.04
2023-03-29T05:55:13.922Z,57.44
2023-03-29T05:56:05.740Z,58.29
2023-03-29T05:56:46.239Z,57.21
2023-03-29T05:57:27.079Z,57.11
2023-03-29T05:58:09.292Z,57.38
2023-03-29T05:59:01.137Z,57.38
2023-03-29T05:59:53.018Z,59.20
2023-03-29T06:00:44.927Z,58.02
2023-03-29T06:01:39.756Z,57.20
2023-03-29T06:02:31.684Z,58.80
2023-03-29T06:03:23.906Z,58.54
2023-03-29T06:04:15.997Z,59.77
2023-03-29T06:06:17.590Z,58.08
2023-03-29T06:07:09.505Z,60.03
2023-03-29T06:08:01.261Z,59.43
2023-03-29T06:08:53.167Z,60.09
2023-03-29T06:09:43.654Z,59.53
2023-03-29T06:10:28.331Z,59.36
2023-03-29T06:11:20.189Z,61.02
2023-03-29T06:12:12.074Z,60.00
2023-03-29T06:13:03.111Z,59.10
2023-03-29T06:13:54.910Z,60.72
2023-03-29T06:14:46.906Z,61.33
2023-03-29T06:15:38.840Z,61.11
2023-03-29T06:16:30.726Z,60.67
2023-03-29T06:17:22.533Z,61.70
2023-03-29T06:18:14.381Z,61.91
2023-03-29T06:18:55.977Z,61.09
2023-03-29T06:19:47.880Z,60.40
2023-03-29T06:20:39.742Z,60.76
2023-03-29T06:21:31.706Z,60.97
2023-03-29T06:22:22.625Z,61.25
2023-03-29T06:23:14.475Z,61.53
2023-03-29T06:23:59.069Z,61.90
2023-03-29T06:24:51.023Z,61.52
2023-03-29T06:25:42.959Z,61.95
2023-03-29T06:26:28.694Z,62.65
2023-03-29T06:27:20.553Z,63.93
2023-03-29T06:28:12.294Z,66.23
2023-03-29T06:29:04.297Z,71.11
2023-03-29T06:29:51.729Z,73.65
2023-03-29T06:30:43.626Z,73.57
2023-03-29T06:31:35.899Z,73.72
2023-03-29T06:32:23.664Z,72.36
2023-03-29T06:33:15.552Z,72.64
2023-03-29T06:34:07.407Z,71.55
2023-03-29T06:34:59.059Z,70.60
2023-03-29T06:35:36.162Z,69.96
2023-03-29T06:36:22.653Z,69.38
2023-03-29T06:37:14.411Z,66.42
2023-03-29T06:38:09.413Z,65.73
2023-03-29T06:39:01.149Z,64.63
2023-03-29T06:39:41.830Z,64.32
2023-03-29T06:40:33.676Z,60.54
2023-03-29T06:41:25.762Z,58.23
2023-03-29T06:42:21.503Z,55.33
2023-03-29T06:43:13.757Z,52.21
2023-03-29T06:43:58.621Z,50.24
2023-03-29T06:44:50.585Z,49.54
2023-03-29T06:45:42.579Z,48.86
2023-03-29T06:46:34.591Z,48.10
2023-03-29T06:47:26.566Z,47.91
2023-03-29T06:48:18.526Z,48.56
2023-03-29T06:49:10.402Z,47.97
2023-03-29T06:50:02.377Z,50.56
2023-03-29T06:50:54.220Z,52.42
2023-03-29T06:51:46.052Z,52.06
2023-03-29T06:52:37.954Z,52.14
2023-03-29T06:53:29.958Z,52.25
2023-03-29T06:54:21.959Z,51.75
2023-03-29T06:55:13.970Z,53.06
2023-03-29T06:56:05.904Z,52.90
2023-03-29T06:56:57.773Z,52.50
2023-03-29T06:57:49.743Z,53.82
2023-03-29T06:58:40.364Z,53.19
2023-03-29T06:59:29.424Z,54.74
2023-03-29T07:00:21.377Z,56.12
2023-03-29T07:01:13.268Z,56.26
2023-03-29T07:02:05.195Z,55.39
2023-03-29T07:02:57.250Z,54.56
2023-03-29T07:03:49.170Z,54.83
2023-03-29T07:04:41.133Z,56.56
2023-03-29T07:05:32.889Z,55.97
2023-03-29T07:06:24.608Z,55.82
2023-03-29T07:07:22.704Z,57.09
2023-03-29T07:08:16.993Z,57.87
2023-03-29T07:09:08.861Z,57.31
2023-03-29T07:10:00.764Z,57.26
2023-03-29T07:10:52.897Z,57.59
2023-03-29T07:11:33.698Z,57.80
2023-03-29T07:12:25.532Z,57.81
2023-03-29T07:13:17.322Z,58.31
2023-03-29T07:14:09.008Z,57.25
2023-03-29T07:14:49.441Z,57.44
2023-03-29T07:15:41.226Z,57.73
2023-03-29T07:16:33.076Z,58.32
2023-03-29T07:17:25.054Z,59.67
2023-03-29T07:18:17.918Z,59.00
2023-03-29T07:19:09.743Z,59.76
2023-03-29T07:20:01.647Z,60.15
2023-03-29T07:20:53.561Z,59.64
2023-03-29T07:21:45.644Z,60.04
2023-03-29T07:22:37.549Z,59.76
2023-03-29T07:23:29.524Z,59.47
2023-03-29T07:24:06.682Z,59.12
2023-03-29T07:24:51.506Z,58.87
2023-03-29T07:25:43.550Z,59.25
2023-03-29T07:26:34.532Z,60.32
2023-03-29T07:27:19.167Z,59.93
2023-03-29T07:28:11.044Z,60.04
2023-03-29T07:29:03.182Z,60.61
2023-03-29T07:29:55.083Z,60.49
2023-03-29T07:30:46.883Z,60.01
2023-03-29T07:31:38.764Z,60.31
2023-03-29T07:32:13.743Z,60.48
2023-03-29T07:33:05.782Z,60.45
2023-03-29T07:33:57.791Z,60.80
2023-03-29T07:34:49.691Z,60.37
2023-03-29T07:35:41.692Z,59.75
2023-03-29T07:36:14.997Z,60.14
2023-03-29T07:37:06.781Z,59.68
2023-03-29T07:37:58.677Z,60.34
2023-03-29T07:38:50.518Z,60.55
2023-03-29T07:39:42.407Z,60.61
2023-03-29T07:40:43.813Z,60.63
2023-03-29T07:41:35.787Z,60.25
2023-03-29T07:42:27.546Z,60.10
2023-03-29T07:43:08.457Z,60.06
2023-03-29T07:44:01.928Z,60.79
2023-03-29T07:44:54.994Z,60.62
2023-03-29T07:45:45.361Z,60.85
2023-03-29T07:46:37.198Z,60.50
2023-03-29T07:47:29.162Z,60.14
2023-03-29T07:48:21.213Z,60.16
2023-03-29T07:49:03.026Z,60.47
2023-03-29T07:49:54.889Z,60.26
2023-03-29T07:50:46.702Z,60.58
2023-03-29T07:51:38.617Z,60.92
2023-03-29T07:52:30.393Z,60.88
2023-03-29T07:53:12.452Z,60.68
2023-03-29T07:54:04.295Z,60.88
2023-03-29T07:54:56.254Z,60.77
2023-03-29T07:55:48.100Z,60.61
2023-03-29T07:56:39.939Z,60.43
2023-03-29T07:57:31.696Z,59.97
2023-03-29T07:58:23.740Z,59.50
2023-03-29T07:59:15.601Z,60.14
2023-03-29T08:00:07.477Z,60.36
2023-03-29T08:00:59.626Z,60.71
2023-03-29T08:01:51.605Z,60.27
2023-03-29T08:02:33.556Z,60.48
2023-03-29T08:03:08.799Z,60.87
2023-03-29T08:04:00.828Z,60.76
2023-03-29T08:04:52.742Z,60.77
2023-03-29T08:05:40.846Z,60.68
2023-03-29T08:06:33.662Z,60.55
2023-03-29T08:07:25.558Z,60.29
2023-03-29T08:08:17.477Z,60.18
2023-03-29T08:09:09.348Z,60.09
2023-03-29T08:10:01.440Z,60.12
2023-03-29T08:10:53.384Z,60.05
2023-03-29T08:11:45.364Z,59.85
2023-03-29T08:12:26.282Z,59.73
2023-03-29T08:13:18.264Z,59.94
2023-03-29T08:14:10.142Z,59.86
2023-03-29T08:15:01.974Z,60.02
2023-03-29T08:15:47.918Z,59.92
2023-03-29T08:16:39.771Z,59.83
2023-03-29T08:17:31.735Z,59.78
2023-03-29T08:18:23.617Z,59.76
2023-03-29T08:19:04.488Z,59.94
2023-03-29T08:19:56.419Z,60.00
2023-03-29T08:20:48.336Z,60.01
2023-03-29T08:21:40.226Z,59.70
2023-03-29T08:22:32.078Z,59.94
2023-03-29T08:23:23.843Z,59.88
2023-03-29T08:23:58.279Z,59.56
2023-03-29T08:24:50.174Z,59.62
2023-03-29T08:25:42.118Z,59.59
2023-03-29T08:26:26.867Z,59.60
2023-03-29T08:27:18.735Z,59.63
2023-03-29T08:28:10.561Z,59.37
2023-03-29T08:29:02.412Z,59.44
2023-03-29T08:29:54.176Z,59.21
2023-03-29T08:30:46.141Z,59.33
2023-03-29T08:31:30.992Z,58.99
2023-03-29T08:32:22.892Z,59.00
2023-03-29T08:33:14.731Z,59.21
2023-03-29T08:34:06.873Z,59.42
2023-03-29T08:34:58.889Z,59.31
2023-03-29T08:35:50.766Z,59.48
2023-03-29T08:36:42.699Z,59.44
2023-03-29T08:37:34.525Z,59.27
2023-03-29T08:38:26.472Z,59.25
2023-03-29T08:39:19.611Z,59.21
2023-03-29T08:40:11.624Z,59.24
2023-03-29T08:41:03.642Z,59.17
2023-03-29T08:41:55.587Z,59.22
2023-03-29T08:42:47.451Z,59.04
2023-03-29T08:43:28.000Z,59.08
2023-03-29T08:44:20.002Z,58.90
2023-03-29T08:45:11.867Z,58.59
2023-03-29T08:46:03.859Z,58.38
2023-03-29T08:46:55.730Z,58.18
2023-03-29T08:47:47.674Z,58.01
2023-03-29T08:48:39.640Z,58.05
2023-03-29T08:49:31.486Z,58.07
2023-03-29T08:50:23.369Z,58.12
2023-03-29T08:51:15.255Z,58.16
2023-03-29T08:52:07.125Z,58.20
2023-03-29T08:52:58.895Z,58.24
2023-03-29T08:53:49.469Z,58.30
2023-03-29T08:54:41.383Z,58.30
2023-03-29T08:55:33.406Z,58.21
2023-03-29T08:56:25.512Z,58.18
2023-03-29T08:57:17.453Z,58.02
2023-03-29T08:58:09.388Z,58.16
2023-03-29T08:59:01.134Z,57.86
2023-03-29T08:59:44.056Z,58.21
2023-03-29T09:00:18.545Z,58.31
2023-03-29T09:01:00.869Z,58.28
2023-03-29T09:01:52.983Z,58.11
2023-03-29T09:02:45.100Z,57.72
2023-03-29T09:03:37.244Z,57.46
2023-03-29T09:04:17.958Z,57.53
2023-03-29T09:05:09.817Z,57.48
2023-03-29T09:06:01.983Z,57.63
2023-03-29T09:06:46.785Z,57.67
2023-03-29T09:07:38.662Z,57.67
2023-03-29T09:08:30.581Z,57.68
2023-03-29T09:09:22.542Z,57.63
2023-03-29T09:10:07.491Z,57.64
2023-03-29T09:10:59.492Z,57.42
2023-03-29T09:11:40.491Z,57.06
2023-03-29T09:12:32.486Z,56.99
2023-03-29T09:13:24.554Z,56.83
2023-03-29T09:14:09.196Z,56.87
2023-03-29T09:15:00.936Z,56.88
2023-03-29T09:15:52.820Z,56.75
2023-03-29T09:16:44.691Z,56.84
2023-03-29T09:17:36.665Z,56.64
2023-03-29T09:18:29.711Z,56.77
2023-03-29T09:19:21.512Z,56.72
2023-03-29T09:20:13.509Z,56.64
2023-03-29T09:20:58.243Z,56.66
2023-03-29T09:21:43.114Z,56.67
2023-03-29T09:22:27.912Z,56.71
2023-03-29T09:23:19.758Z,56.72
2023-03-29T09:24:11.665Z,56.75
2023-03-29T09:25:03.742Z,56.82
2023-03-29T09:25:55.628Z,56.60
2023-03-29T09:26:38.068Z,56.40
2023-03-29T09:27:30.039Z,56.48
2023-03-29T09:28:21.854Z,56.49
2023-03-29T09:29:04.034Z,56.58
2023-03-29T09:29:46.907Z,56.62
2023-03-29T09:30:38.825Z,56.59
2023-03-29T09:31:30.785Z,56.53
2023-03-29T09:32:22.740Z,56.46
2023-03-29T09:33:14.615Z,56.45
2023-03-29T09:34:06.530Z,56.50
2023-03-29T09:34:58.482Z,56.46
2023-03-29T09:35:50.295Z,56.45
2023-03-29T09:36:42.213Z,56.51
2023-03-29T09:37:22.991Z,56.50
2023-03-29T09:38:14.890Z,56.51
2023-03-29T09:39:06.724Z,56.46
2023-03-29T09:39:58.591Z,56.30
2023-03-29T09:40:39.451Z,56.32
2023-03-29T09:41:31.458Z,56.23
2023-03-29T09:42:14.053Z,56.23
2023-03-29T09:43:06.058Z,56.17
2023-03-29T09:43:57.946Z,56.10
2023-03-29T09:44:50.031Z,56.09
2023-03-29T09:45:42.015Z,56.06
2023-03-29T09:46:33.977Z,56.11
2023-03-29T09:47:18.412Z,56.06
2023-03-29T09:48:10.262Z,56.05
2023-03-29T09:49:02.218Z,56.15
2023-03-29T09:49:54.100Z,56.01
2023-03-29T09:50:46.085Z,55.96
2023-03-29T09:51:37.973Z,55.36
2023-03-29T09:52:29.670Z,55.43
2023-03-29T09:53:21.622Z,55.50
2023-03-29T09:54:13.516Z,55.52
2023-03-29T09:54:57.885Z,55.55
2023-03-29T09:55:50.383Z,55.53
2023-03-29T09:56:41.197Z,55.54
2023-03-29T09:57:33.058Z,55.59
2023-03-29T09:58:17.576Z,55.60
2023-03-29T09:59:09.558Z,55.59
2023-03-29T10:00:01.528Z,55.47
2023-03-29T10:00:53.466Z,55.14
2023-03-29T10:01:42.727Z,55.20
2023-03-29T10:02:34.622Z,55.30
2023-03-29T10:03:26.481Z,55.38
2023-03-29T10:04:18.491Z,55.44
2023-03-29T10:05:08.539Z,55.40
2023-03-29T10:06:00.271Z,55.37
2023-03-29T10:06:52.072Z,55.38
2023-03-29T10:07:43.912Z,55.42
2023-03-29T10:08:35.919Z,55.46
2023-03-29T10:09:27.710Z,55.44
2023-03-29T10:10:12.415Z,55.40
2023-03-29T10:11:04.425Z,55.01
2023-03-29T10:11:56.402Z,54.85
2023-03-29T10:12:48.183Z,54.99
2023-03-29T10:13:40.205Z,54.81
2023-03-29T10:14:31.986Z,54.96
2023-03-29T10:15:23.139Z,55.03
2023-03-29T10:16:20.853Z,54.85
2023-03-29T10:17:12.924Z,54.93
2023-03-29T10:18:04.876Z,54.90
2023-03-29T10:18:56.686Z,54.96
2023-03-29T10:19:48.701Z,54.95
2023-03-29T10:20:40.647Z,54.97
2023-03-29T10:21:32.542Z,54.92
2023-03-29T10:22:24.541Z,54.75
2023-03-29T10:23:16.520Z,54.81
2023-03-29T10:24:08.384Z,54.84
2023-03-29T10:24:58.085Z,54.81
2023-03-29T10:25:32.800Z,54.81
2023-03-29T10:26:24.696Z,54.84
2023-03-29T10:27:16.681Z,54.68
2023-03-29T10:28:08.559Z,54.70
2023-03-29T10:28:59.780Z,54.69
2023-03-29T10:29:51.543Z,54.71
2023-03-29T10:30:36.752Z,54.69
2023-03-29T10:31:21.658Z,54.73
2023-03-29T10:32:13.569Z,54.34
2023-03-29T10:33:05.527Z,54.25
2023-03-29T10:33:57.438Z,54.35
2023-03-29T10:34:49.340Z,54.27
2023-03-29T10:35:41.219Z,54.33
2023-03-29T10:36:32.930Z,54.29
2023-03-29T10:37:24.820Z,54.26
2023-03-29T10:38:16.645Z,54.02
2023-03-29T10:39:08.483Z,54.16
2023-03-29T10:40:00.306Z,54.10
2023-03-29T10:40:52.187Z,54.09
2023-03-29T10:41:37.596Z,53.76
2023-03-29T10:42:29.538Z,53.79
2023-03-29T10:43:21.454Z,53.67
2023-03-29T10:44:13.412Z,53.84
2023-03-29T10:45:05.245Z,53.89
2023-03-29T10:45:57.206Z,53.89
2023-03-29T10:46:37.663Z,53.97